Time;durP1;ratioP1;P1;durP2;ratioP2;P2;SDS_P1;SDS_P2;PMS_P1;PMS_P2;Temp;Humidity;BMP_temperature;BMP_pressure;BME280_temperature;BME280_humidity;BME280_pressure;Samples;Min_cycle;Max_cycle;Signal;HPM_P1;HPM_P2
2022/07/01 00:01:41;;;;;;;4.43;3.25;;;22.90;99.90;;;;;;5239974;28;20031;-59
2022/07/01 00:04:17;;;;;;;4.10;3.13;;;22.90;99.90;;;;;;5228747;28;20029;-58
2022/07/01 00:06:52;;;;;;;4.38;2.67;;;22.80;99.90;;;;;;5221657;28;20039;-59
2022/07/01 00:09:25;;;;;;;5.47;2.88;;;22.70;99.90;;;;;;5236733;28;20041;-60
2022/07/01 00:11:59;;;;;;;5.18;3.10;;;22.60;99.90;;;;;;5238527;28;20029;-60
2022/07/01 00:14:33;;;;;;;4.60;3.40;;;22.60;99.90;;;;;;5236928;28;20021;-59
2022/07/01 00:17:04;;;;;;;4.65;3.53;;;22.50;99.90;;;;;;5239632;28;20029;-60
2022/07/01 00:19:38;;;;;;;6.03;3.28;;;22.50;99.90;;;;;;5236132;28;20318;-60
2022/07/01 00:22:09;;;;;;;5.97;3.10;;;22.60;99.90;;;;;;5237354;28;20037;-59
2022/07/01 00:24:40;;;;;;;4.90;2.70;;;22.60;99.90;;;;;;5237496;28;20035;-59
2022/07/01 00:27:13;;;;;;;6.32;3.28;;;22.70;99.90;;;;;;5239159;28;20024;-59
2022/07/01 00:29:46;;;;;;;3.58;3.22;;;22.90;99.90;;;;;;5238544;28;20047;-58
2022/07/01 00:32:20;;;;;;;4.53;3.20;;;23.00;99.90;;;;;;5238298;28;20033;-59
2022/07/01 00:34:54;;;;;;;3.90;3.08;;;23.40;99.90;;;;;;5237392;28;20028;-59
2022/07/01 00:37:25;;;;;;;3.30;2.65;;;23.50;99.90;;;;;;5239647;28;20298;-58
2022/07/01 00:39:57;;;;;;;6.22;3.38;;;23.60;99.90;;;;;;5237188;28;20317;-60
2022/07/01 00:42:28;;;;;;;3.88;3.10;;;23.70;99.90;;;;;;5220762;28;20310;-59
2022/07/01 00:44:59;;;;;;;6.07;3.30;;;24.20;99.90;;;;;;5238781;28;20024;-59
2022/07/01 00:47:32;;;;;;;3.10;2.80;;;24.40;99.90;;;;;;5236686;28;20043;-59
2022/07/01 00:50:11;;;;;;;7.13;3.95;;;24.40;99.90;;;;;;5239508;28;20031;-59
2022/07/01 00:52:44;;;;;;;4.43;3.20;;;24.40;99.90;;;;;;5236619;28;20033;-59
2022/07/01 00:55:18;;;;;;;5.65;3.42;;;24.30;99.90;;;;;;5237059;28;20017;-59
2022/07/01 00:57:52;;;;;;;3.53;2.85;;;24.30;99.90;;;;;;5240574;28;20036;-60
2022/07/01 01:00:26;;;;;;;;;;;24.20;99.90;;;;;;5242532;28;20187;-59
2022/07/01 01:03:00;;;;;;;4.93;3.17;;;24.20;99.90;;;;;;5243093;28;19907;-60
2022/07/01 01:05:35;;;;;;;6.20;3.85;;;24.10;99.90;;;;;;5243279;28;20306;-60
2022/07/01 01:08:08;;;;;;;3.92;3.30;;;24.00;99.90;;;;;;5245984;28;20029;-60
2022/07/01 01:10:43;;;;;;;3.37;2.93;;;23.90;99.90;;;;;;5241089;28;20213;-60
2022/07/01 01:13:16;;;;;;;6.22;3.50;;;23.80;99.90;;;;;;5241474;28;20039;-60
2022/07/01 01:15:50;;;;;;;4.55;3.10;;;23.70;99.90;;;;;;5240525;28;20126;-59
2022/07/01 01:18:22;;;;;;;3.10;2.78;;;23.80;99.90;;;;;;5241619;28;20025;-59
2022/07/01 01:20:54;;;;;;;4.82;3.22;;;23.90;99.90;;;;;;5242119;28;20046;-59
2022/07/01 01:23:28;;;;;;;3.05;2.67;;;23.90;99.90;;;;;;5240246;28;20233;-58
2022/07/01 01:26:02;;;;;;;5.43;3.33;;;23.80;99.90;;;;;;5241753;28;20024;-59
2022/07/01 01:28:33;;;;;;;3.10;2.78;;;23.80;99.90;;;;;;5242721;28;20210;-59
2022/07/01 01:31:07;;;;;;;3.63;3.00;;;23.70;99.90;;;;;;5224940;28;20041;-60
2022/07/01 01:33:41;;;;;;;4.70;3.28;;;23.70;99.90;;;;;;5224021;28;20037;-59
2022/07/01 01:36:15;;;;;;;3.15;2.53;;;23.70;99.90;;;;;;5241944;28;20348;-59
2022/07/01 01:38:49;;;;;;;;;;;23.60;99.90;;;;;;5223803;28;20227;-59
2022/07/01 01:41:20;;;;;;;5.68;2.55;;;23.50;99.90;;;;;;5240767;28;20067;-60
2022/07/01 01:43:56;;;;;;;5.38;2.50;;;23.40;99.90;;;;;;5240281;28;20025;-58
2022/07/01 01:46:30;;;;;;;4.00;2.97;;;23.30;99.90;;;;;;5241660;28;20025;-60
2022/07/01 01:49:04;;;;;;;3.97;2.97;;;23.20;99.90;;;;;;5224659;28;20033;-59
2022/07/01 01:54:46;;;;;;;3.13;2.80;;;23.20;99.90;;;;;;5248124;28;19907;-60
2022/07/01 01:57:20;;;;;;;3.78;3.38;;;23.10;99.90;;;;;;5247877;28;20029;-65
2022/07/01 01:59:54;;;;;;;5.30;2.85;;;23.10;99.90;;;;;;5241491;28;20029;-60
2022/07/01 02:02:27;;;;;;;4.97;3.07;;;23.00;99.90;;;;;;5243260;28;20028;-59
2022/07/01 02:04:59;;;;;;;3.55;3.05;;;23.10;99.90;;;;;;5242779;28;20025;-60
2022/07/01 02:07:31;;;;;;;3.58;3.00;;;23.20;99.90;;;;;;5239318;28;20024;-61
2022/07/01 02:10:03;;;;;;;3.65;3.05;;;23.20;99.90;;;;;;5240234;28;20207;-60
2022/07/01 02:12:35;;;;;;;3.72;2.45;;;23.30;99.90;;;;;;5239076;28;20040;-59
2022/07/01 02:15:08;;;;;;;5.22;3.08;;;23.30;99.90;;;;;;5240098;28;20033;-59
2022/07/01 02:17:44;;;;;;;3.70;3.20;;;23.30;99.90;;;;;;5242400;28;20028;-60
2022/07/01 02:20:17;;;;;;;2.83;2.55;;;23.40;99.90;;;;;;5241070;28;20025;-59
2022/07/01 02:22:51;;;;;;;3.50;2.90;;;23.40;99.90;;;;;;5222558;28;20029;-59
2022/07/01 02:25:25;;;;;;;6.35;3.13;;;23.50;99.90;;;;;;5240349;28;20039;-59
2022/07/01 02:28:00;;;;;;;2.95;2.28;;;23.50;99.90;;;;;;5239259;28;20036;-60
2022/07/01 02:30:35;;;;;;;3.75;2.67;;;23.40;99.90;;;;;;5223468;28;20043;-58
2022/07/01 02:33:11;;;;;;;4.28;3.20;;;23.40;99.90;;;;;;5238721;28;20171;-60
2022/07/01 02:35:45;;;;;;;6.43;3.83;;;23.30;99.90;;;;;;5239148;28;20031;-59
2022/07/01 02:38:19;;;;;;;4.95;3.17;;;23.20;99.90;;;;;;5239336;28;20316;-59
2022/07/01 02:40:56;;;;;;;3.58;3.17;;;23.10;99.90;;;;;;5239645;28;20035;-58
2022/07/01 02:43:29;;;;;;;5.85;3.20;;;23.10;99.90;;;;;;5238178;28;20025;-59
2022/07/01 02:46:03;;;;;;;3.47;2.87;;;23.10;99.90;;;;;;5239900;28;20032;-59
2022/07/01 02:48:35;;;;;;;4.10;2.97;;;23.10;99.90;;;;;;5240334;28;20025;-59
2022/07/01 02:51:09;;;;;;;4.97;3.95;;;23.00;99.90;;;;;;5207423;28;20037;-59
2022/07/01 02:53:42;;;;;;;5.53;3.92;;;23.00;99.90;;;;;;5237848;28;20209;-59
2022/07/01 02:59:41;;;;;;;4.50;3.55;;;22.80;99.90;;;;;;5239813;28;20017;-59
2022/07/01 03:02:13;;;;;;;6.45;4.28;;;22.70;99.90;;;;;;5239586;28;20032;-59
2022/07/01 03:04:48;;;;;;;4.80;3.60;;;22.70;99.90;;;;;;5234014;28;20045;-59
2022/07/01 03:07:22;;;;;;;5.57;4.18;;;22.60;99.90;;;;;;5238983;28;20047;-58
2022/07/01 03:09:54;;;;;;;4.57;3.88;;;22.50;99.90;;;;;;5238632;28;20067;-59
2022/07/01 03:12:25;;;;;;;6.45;4.45;;;22.50;99.90;;;;;;5239927;28;20303;-59
2022/07/01 03:15:05;;;;;;;5.68;4.20;;;22.50;99.90;;;;;;5205376;28;20041;-59
2022/07/01 03:17:41;;;;;;;7.28;4.50;;;22.40;99.90;;;;;;5241320;28;20028;-59
2022/07/01 03:20:16;;;;;;;7.70;4.28;;;22.40;99.90;;;;;;5238479;28;20017;-60
2022/07/01 03:22:50;;;;;;;4.72;4.22;;;22.30;99.90;;;;;;5239770;28;20025;-59
2022/07/01 03:25:24;;;;;;;6.03;3.97;;;22.30;99.90;;;;;;5223433;28;20029;-59
2022/07/01 03:27:57;;;;;;;6.63;4.03;;;22.30;99.90;;;;;;5238340;28;20025;-59
2022/07/01 03:30:31;;;;;;;12.32;6.32;;;22.40;99.90;;;;;;5238179;28;20040;-59
2022/07/01 03:33:06;;;;;;;5.85;4.32;;;22.40;99.90;;;;;;5238947;28;20342;-59
2022/07/01 03:35:45;;;;;;;6.80;4.05;;;22.50;99.90;;;;;;5239641;28;20025;-60
2022/07/01 03:38:16;;;;;;;5.53;3.67;;;22.60;99.90;;;;;;5239027;28;20031;-59
2022/07/01 03:40:47;;;;;;;6.38;3.88;;;22.70;99.90;;;;;;5238372;28;20035;-59
2022/07/01 03:43:23;;;;;;;5.93;4.07;;;22.90;99.90;;;;;;5239311;28;20225;-60
2022/07/01 03:49:22;;;;;;;5.88;4.18;;;23.00;99.90;;;;;;5238151;28;20017;-59
2022/07/01 03:51:56;;;;;;;5.32;3.83;;;23.00;99.90;;;;;;5238018;28;20045;-60
2022/07/01 03:54:37;;;;;;;5.50;4.47;;;23.00;99.90;;;;;;5219779;28;20037;-60
2022/07/01 03:57:09;;;;;;;4.60;3.50;;;22.90;99.90;;;;;;5236382;28;20033;-59
2022/07/01 03:59:40;;;;;;;4.90;3.80;;;22.80;99.90;;;;;;5218056;28;20029;-61
2022/07/01 04:02:13;;;;;;;4.85;3.78;;;22.80;99.90;;;;;;5237988;28;20024;-59
2022/07/01 04:04:47;;;;;;;4.57;3.30;;;22.90;99.90;;;;;;5232722;28;20040;-61
2022/07/01 04:07:21;;;;;;;4.50;3.28;;;23.00;99.90;;;;;;5250231;28;20021;-61
2022/07/01 04:10:00;;;;;;;3.45;2.95;;;23.10;99.90;;;;;;5238892;28;20047;-59
2022/07/01 04:12:31;;;;;;;3.53;3.10;;;23.40;99.90;;;;;;5237319;28;20347;-60
2022/07/01 04:15:05;;;;;;;3.47;2.67;;;23.70;99.90;;;;;;5221535;28;20021;-61
2022/07/01 04:17:37;;;;;;;12.65;3.03;;;23.90;99.90;;;;;;5239066;28;20396;-60
2022/07/01 04:20:11;;;;;;;4.43;3.20;;;24.10;99.90;;;;;;5220559;28;20033;-60
2022/07/01 04:22:42;;;;;;;3.35;2.78;;;24.40;99.90;;;;;;5229679;28;20033;-63
2022/07/01 04:25:14;;;;;;;3.90;2.67;;;24.60;99.90;;;;;;5225024;28;20031;-61
2022/07/01 04:27:45;;;;;;;4.55;2.70;;;24.80;99.90;;;;;;5218188;28;20036;-60
2022/07/01 04:30:19;;;;;;;2.97;2.58;;;24.90;99.90;;;;;;5235375;28;20206;-60
2022/07/01 04:32:52;;;;;;;3.10;2.85;;;24.80;99.90;;;;;;5222612;28;20039;-61
2022/07/01 04:35:26;;;;;;;3.40;2.72;;;24.70;99.90;;;;;;5237143;28;20029;-61
2022/07/01 04:38:02;;;;;;;4.43;2.35;;;24.80;99.90;;;;;;5241549;28;20035;-59
2022/07/01 04:40:36;;;;;;;5.38;2.42;;;25.00;99.90;;;;;;5223714;28;20036;-60
2022/07/01 04:43:10;;;;;;;3.20;2.90;;;25.40;99.90;;;;;;5241600;28;20216;-60
2022/07/01 04:45:43;;;;;;;2.83;2.47;;;25.70;99.90;;;;;;5188749;28;20332;-63
2022/07/01 04:48:20;;;;;;;5.55;2.22;;;25.90;99.90;;;;;;5239171;28;20055;-61
2022/07/01 04:50:57;;;;;;;2.28;2.08;;;26.10;99.90;;;;;;5240076;28;20025;-62
2022/07/01 04:53:33;;;;;;;1.95;1.60;;;26.60;99.90;;;;;;5240319;28;20021;-61
2022/07/01 04:59:32;;;;;;;3.92;1.65;;;27.10;99.90;;;;;;5241425;28;20031;-60
2022/07/01 05:02:06;;;;;;;2.30;1.63;;;26.50;99.90;;;;;;5237382;28;20031;-61
2022/07/01 05:04:40;;;;;;;2.28;1.70;;;26.50;99.90;;;;;;5217110;28;20037;-60
2022/07/01 05:07:27;;;;;;;2.10;1.90;;;26.40;99.90;;;;;;5252809;28;20031;-60
2022/07/01 05:09:59;;;;;;;2.17;1.80;;;26.00;99.90;;;;;;5239736;28;20040;-61
2022/07/01 05:12:32;;;;;;;3.22;1.77;;;26.20;99.90;;;;;;5241870;28;20025;-60
2022/07/01 05:15:09;;;;;;;1.70;1.52;;;26.00;99.90;;;;;;5241389;28;20027;-60
2022/07/01 05:23:22;;;;;;;1.88;1.40;;;26.50;99.90;;;;;;5241023;28;20324;-60
2022/07/01 05:25:56;;;;;;;2.88;1.40;;;26.20;99.90;;;;;;5237095;28;20015;-60
2022/07/01 05:28:27;;;;;;;1.43;1.30;;;26.10;99.90;;;;;;5241662;28;20024;-59
2022/07/01 05:30:58;;;;;;;0.93;0.93;;;25.80;99.90;;;;;;5220550;28;20039;-60
2022/07/01 05:33:29;;;;;;;1.08;0.98;;;25.70;99.90;;;;;;5203278;28;20241;-61
2022/07/01 05:36:02;;;;;;;0.63;0.63;;;25.70;99.90;;;;;;5220941;28;20021;-61
2022/07/01 05:38:33;;;;;;;0.70;0.70;;;25.60;99.90;;;;;;5218870;28;20025;-59
2022/07/01 05:41:08;;;;;;;0.65;0.60;;;25.50;99.90;;;;;;5221113;28;20035;-61
2022/07/01 05:43:39;;;;;;;1.10;0.73;;;25.30;99.90;;;;;;5221879;28;20027;-60
2022/07/01 05:46:13;;;;;;;0.77;0.77;;;25.50;99.90;;;;;;5221869;28;20321;-62
2022/07/01 05:48:44;;;;;;;1.00;0.65;;;25.70;99.90;;;;;;5218778;28;20013;-60
2022/07/01 05:51:16;;;;;;;1.20;0.70;;;25.60;99.90;;;;;;5209752;28;20040;-61
2022/07/01 05:53:49;;;;;;;0.60;0.60;;;25.50;99.90;;;;;;5210539;28;20013;-61
2022/07/01 05:56:21;;;;;;;0.95;0.70;;;25.70;99.90;;;;;;5190088;28;20222;-62
2022/07/01 05:58:53;;;;;;;0.95;0.85;;;25.50;99.90;;;;;;5201863;28;20213;-60
2022/07/01 06:01:24;;;;;;;1.90;0.68;;;25.30;99.90;;;;;;5202450;28;20044;-59
2022/07/01 06:03:58;;;;;;;0.60;0.60;;;25.20;99.90;;;;;;5219299;28;20213;-59
2022/07/01 06:06:29;;;;;;;1.23;0.90;;;25.00;99.90;;;;;;5211185;28;20242;-58
2022/07/01 06:09:08;;;;;;;0.75;0.70;;;24.80;99.90;;;;;;5218855;28;20039;-60
2022/07/01 06:11:40;;;;;;;0.88;0.85;;;25.10;99.90;;;;;;5204333;28;20217;-60
2022/07/01 06:14:17;;;;;;;0.60;0.60;;;24.90;99.90;;;;;;5197951;28;20370;-61
2022/07/01 06:16:53;;;;;;;0.90;0.90;;;24.70;99.90;;;;;;5208792;28;20031;-61
2022/07/01 06:19:24;;;;;;;1.00;0.88;;;24.90;99.90;;;;;;5219469;28;20253;-61
2022/07/01 06:21:56;;;;;;;2.33;0.77;;;24.90;99.90;;;;;;5219095;28;20445;-60
2022/07/01 06:24:27;;;;;;;0.73;0.70;;;25.00;99.90;;;;;;5181251;28;20040;-59
2022/07/01 06:27:00;;;;;;;0.80;0.80;;;25.20;99.90;;;;;;5198532;28;20029;-61
2022/07/01 06:29:40;;;;;;;0.60;0.60;;;25.10;99.90;;;;;;5198331;28;20295;-60
2022/07/01 06:32:11;;;;;;;1.10;0.73;;;25.30;99.90;;;;;;5198183;28;20025;-60
2022/07/01 06:34:42;;;;;;;0.80;0.70;;;25.40;99.90;;;;;;5215988;28;20333;-60
2022/07/01 06:37:16;;;;;;;2.30;0.80;;;25.70;99.90;;;;;;5200696;28;20424;-61
2022/07/01 06:39:48;;;;;;;2.08;1.20;;;25.90;99.90;;;;;;5217066;28;20155;-61
2022/07/01 06:42:19;;;;;;;2.05;1.25;;;25.90;99.90;;;;;;5200680;28;20024;-61
2022/07/01 06:44:50;;;;;;;2.00;1.00;;;25.70;99.90;;;;;;5217269;28;20212;-61
2022/07/01 06:47:21;;;;;;;1.17;0.90;;;25.80;99.90;;;;;;5199392;28;20341;-61
2022/07/01 06:49:55;;;;;;;0.95;0.90;;;25.40;99.90;;;;;;5217630;28;20027;-61
2022/07/01 06:52:29;;;;;;;;;;;25.70;99.90;;;;;;5218715;28;20029;-61
2022/07/01 06:55:01;;;;;;;1.30;1.20;;;25.70;99.90;;;;;;5216578;28;19912;-60
2022/07/01 06:57:35;;;;;;;0.93;0.88;;;26.00;99.90;;;;;;5217271;28;20493;-61
2022/07/01 07:00:09;;;;;;;1.35;1.25;;;26.00;99.90;;;;;;5216521;28;20039;-61
2022/07/01 07:02:40;;;;;;;1.95;0.93;;;26.20;99.90;;;;;;5217036;28;20025;-61
2022/07/01 07:05:15;;;;;;;1.48;1.05;;;26.30;99.90;;;;;;5206305;28;20340;-62
2022/07/01 07:07:49;;;;;;;;;;;26.20;99.90;;;;;;5209698;28;20076;-60
2022/07/01 07:10:23;;;;;;;1.63;1.50;;;26.00;99.90;;;;;;5220275;28;19921;-59
2022/07/01 07:12:55;;;;;;;1.42;1.33;;;26.20;99.90;;;;;;5219904;28;20043;-61
2022/07/01 07:15:27;;;;;;;1.38;1.27;;;26.30;99.90;;;;;;5215101;28;20031;-60
2022/07/01 07:18:00;;;;;;;1.35;1.20;;;26.20;99.90;;;;;;5196719;28;20035;-61
2022/07/01 07:20:31;;;;;;;4.35;1.70;;;26.20;99.90;;;;;;5215732;28;20035;-62
2022/07/01 07:23:03;;;;;;;2.45;1.90;;;26.50;99.90;;;;;;5217687;28;20017;-60
2022/07/01 07:25:34;;;;;;;1.35;1.20;;;26.70;99.90;;;;;;5195785;28;20222;-60
2022/07/01 07:28:05;;;;;;;1.98;1.77;;;26.50;99.90;;;;;;5214129;28;20029;-59
2022/07/01 07:30:40;;;;;;;2.55;1.48;;;26.40;99.90;;;;;;5211959;28;20455;-62
2022/07/01 07:33:11;;;;;;;1.73;1.38;;;26.40;99.90;;;;;;5213858;28;20267;-60
2022/07/01 07:35:43;;;;;;;2.00;1.80;;;26.20;99.90;;;;;;5217019;28;20033;-62
2022/07/01 07:38:16;;;;;;;4.55;1.60;;;26.60;99.90;;;;;;5211759;28;20197;-60
2022/07/01 07:40:50;;;;;;;1.50;1.40;;;26.70;99.90;;;;;;5215825;28;20040;-61
2022/07/01 07:43:24;;;;;;;1.83;1.50;;;26.50;99.90;;;;;;5201690;28;20033;-63
2022/07/01 07:45:55;;;;;;;2.27;1.50;;;26.70;99.90;;;;;;5208695;28;20020;-59
2022/07/01 07:48:28;;;;;;;1.75;1.38;;;26.90;99.90;;;;;;5208665;28;20024;-60
2022/07/01 07:51:01;;;;;;;1.80;1.38;;;26.80;99.90;;;;;;5203901;28;20204;-60
2022/07/01 07:53:33;;;;;;;1.80;1.70;;;27.10;99.90;;;;;;5205794;28;20035;-61
2022/07/01 07:56:06;;;;;;;1.60;1.50;;;26.90;99.90;;;;;;5204808;28;20013;-62
2022/07/01 07:58:41;;;;;;;2.45;1.85;;;26.70;99.90;;;;;;5206422;28;20234;-61
2022/07/01 08:01:12;;;;;;;2.20;1.60;;;26.70;99.90;;;;;;5210441;28;20031;-62
2022/07/01 08:03:45;;;;;;;3.28;1.95;;;27.00;99.90;;;;;;5205047;28;20175;-60
2022/07/01 08:06:16;;;;;;;1.70;1.58;;;27.00;99.90;;;;;;5211263;28;20049;-60
2022/07/01 08:08:50;;;;;;;2.22;1.80;;;26.70;99.90;;;;;;5195318;28;20441;-60
2022/07/01 08:11:24;;;;;;;1.60;1.50;;;26.80;99.90;;;;;;5224269;28;20214;-60
2022/07/01 08:13:55;;;;;;;2.10;1.90;;;26.90;99.90;;;;;;5224069;28;20035;-60
2022/07/01 08:16:27;;;;;;;3.42;1.50;;;27.10;99.90;;;;;;5213075;28;20039;-58
2022/07/01 08:18:58;;;;;;;2.08;1.80;;;27.10;99.90;;;;;;5212297;28;20055;-61
2022/07/01 08:21:31;;;;;;;1.45;1.35;;;27.50;99.90;;;;;;5211551;28;20021;-63
2022/07/01 08:24:05;;;;;;;2.70;1.92;;;28.10;99.90;;;;;;5227541;28;20028;-59
2022/07/01 08:26:36;;;;;;;2.70;2.13;;;28.00;99.90;;;;;;5233557;28;20031;-59
2022/07/01 08:29:08;;;;;;;2.10;1.58;;;27.80;99.90;;;;;;5238866;28;20017;-59
2022/07/01 08:31:41;;;;;;;1.75;1.65;;;27.90;99.90;;;;;;5235042;28;20043;-59
2022/07/01 08:34:15;;;;;;;1.67;1.50;;;27.90;99.90;;;;;;5219028;28;20029;-62
2022/07/01 08:36:46;;;;;;;;;;;28.10;99.90;;;;;;5216742;28;20023;-62
2022/07/01 08:39:18;;;;;;;1.80;1.60;;;28.20;99.90;;;;;;5214295;28;19923;-62
2022/07/01 08:41:51;;;;;;;8.77;1.85;;;28.50;99.90;;;;;;5198645;28;20360;-61
2022/07/01 08:44:27;;;;;;;3.25;2.05;;;28.50;99.90;;;;;;5219979;28;20214;-60
2022/07/01 08:47:00;;;;;;;2.13;1.80;;;28.50;99.90;;;;;;5215170;28;20029;-59
2022/07/01 08:49:32;;;;;;;2.28;2.08;;;28.30;99.90;;;;;;5216384;28;20324;-61
2022/07/01 08:52:03;;;;;;;3.78;1.83;;;28.50;99.90;;;;;;5216230;28;20298;-59
2022/07/01 08:54:41;;;;;;;3.55;1.83;;;28.30;99.90;;;;;;5216818;28;20033;-60
2022/07/01 08:57:12;;;;;;;2.95;1.98;;;28.30;99.90;;;;;;5214572;28;20025;-59
2022/07/01 08:59:46;;;;;;;1.70;1.60;;;28.60;99.90;;;;;;5216472;28;20030;-59
2022/07/01 09:02:17;;;;;;;2.90;2.08;;;28.60;99.90;;;;;;5217815;28;20294;-60
2022/07/01 09:05:05;;;;;;;1.98;1.77;;;28.30;99.90;;;;;;5215409;28;20041;-61
2022/07/01 09:07:37;;;;;;;3.00;1.92;;;28.30;99.90;;;;;;5226013;28;20025;-60
2022/07/01 09:10:22;;;;;;;2.92;1.77;;;28.70;99.90;;;;;;5214166;28;20025;-60
2022/07/01 09:12:57;;;;;;;2.75;1.90;;;29.40;99.90;;;;;;5218436;28;20265;-62
2022/07/01 09:15:30;;;;;;;4.03;1.60;;;28.80;99.90;;;;;;5194877;28;20032;-61
2022/07/01 09:18:20;;;;;;;2.40;2.08;;;28.70;99.90;;;;;;5210988;28;20241;-62
2022/07/01 09:20:52;;;;;;;3.25;2.33;;;29.00;99.90;;;;;;5198400;28;20033;-60
2022/07/01 09:23:25;;;;;;;2.45;2.25;;;29.10;99.90;;;;;;5215162;28;20202;-59
2022/07/01 09:25:59;;;;;;;4.97;1.92;;;29.00;99.90;;;;;;5216212;28;20033;-62
2022/07/01 09:28:30;;;;;;;3.35;1.98;;;29.20;99.90;;;;;;5188617;28;20207;-60
2022/07/01 09:31:02;;;;;;;2.25;2.05;;;29.60;99.90;;;;;;5211349;28;20017;-61
2022/07/01 09:33:33;;;;;;;1.90;1.80;;;29.50;99.90;;;;;;5210940;28;20321;-62
2022/07/01 09:36:07;;;;;;;3.13;1.75;;;29.60;99.90;;;;;;5210674;28;20308;-61
2022/07/01 09:38:47;;;;;;;2.15;1.95;;;29.60;99.90;;;;;;5192606;28;20032;-61
2022/07/01 09:41:23;;;;;;;2.45;1.77;;;30.30;99.90;;;;;;5209960;28;20037;-62
2022/07/01 09:44:07;;;;;;;1.92;1.70;;;30.60;99.90;;;;;;5215540;28;20039;-61
2022/07/01 09:46:53;;;;;;;3.42;2.33;;;30.50;99.90;;;;;;5198307;28;20029;-61
2022/07/01 09:49:24;;;;;;;1.92;1.83;;;30.30;99.90;;;;;;5203866;28;20028;-62
2022/07/01 09:51:56;;;;;;;2.65;2.13;;;30.30;99.90;;;;;;5182993;28;20033;-61
2022/07/01 09:54:31;;;;;;;2.80;1.90;;;30.10;99.90;;;;;;5209687;28;20012;-61
2022/07/01 09:57:02;;;;;;;3.80;2.00;;;30.10;99.90;;;;;;5208247;28;20023;-61
2022/07/01 09:59:35;;;;;;;3.78;1.88;;;29.60;99.90;;;;;;5208300;28;20314;-60
2022/07/01 10:02:08;;;;;;;2.83;1.80;;;29.80;99.90;;;;;;5211626;28;20321;-62
2022/07/01 10:04:46;;;;;;;1.88;1.67;;;30.30;99.90;;;;;;5200613;28;20583;-59
2022/07/01 10:07:28;;;;;;;3.13;1.83;;;30.60;99.90;;;;;;5216193;28;20025;-61
2022/07/01 10:10:26;;;;;;;2.80;2.00;;;31.30;99.90;;;;;;5192179;28;20318;-61
2022/07/01 10:13:02;;;;;;;2.50;1.98;;;31.60;99.90;;;;;;5167536;28;20041;-62
2022/07/01 10:15:37;;;;;;;4.38;2.28;;;31.60;99.90;;;;;;5167585;28;20040;-60
2022/07/01 10:18:22;;;;;;;5.28;1.80;;;31.10;99.90;;;;;;5168711;28;20028;-62
2022/07/01 10:20:56;;;;;;;2.30;2.10;;;31.60;99.90;;;;;;5167274;28;20053;-63
2022/07/01 10:23:45;;;;;;;3.38;2.10;;;31.70;99.90;;;;;;5167648;28;20022;-62
2022/07/01 10:26:19;;;;;;;3.58;1.77;;;32.20;99.90;;;;;;5167859;28;20211;-61
2022/07/01 10:28:53;;;;;;;5.07;1.90;;;32.80;99.90;;;;;;5165066;28;20034;-61
2022/07/01 10:31:39;;;;;;;1.70;1.60;;;32.90;99.90;;;;;;5166619;28;20022;-61
2022/07/01 10:34:16;;;;;;;2.40;1.83;;;33.10;99.90;;;;;;5196080;28;20196;-60
2022/07/01 10:37:01;;;;;;;1.70;1.60;;;33.50;99.90;;;;;;5198153;28;20028;-61
2022/07/01 10:40:00;;;;;;;2.47;1.95;;;34.20;99.90;;;;;;5172188;28;20155;-62
2022/07/01 10:42:52;;;;;;;2.08;1.80;;;34.00;99.90;;;;;;5169049;28;20017;-61
2022/07/01 10:45:24;;;;;;;5.30;2.17;;;33.60;99.90;;;;;;5168276;28;20022;-64
2022/07/01 10:48:22;;;;;;;2.35;1.80;;;34.20;99.90;;;;;;5170288;28;20017;-61
2022/07/01 10:50:53;;;;;;;2.45;1.85;;;33.60;99.90;;;;;;5166157;28;20048;-60
2022/07/01 10:53:33;;;;;;;1.83;1.60;;;33.20;99.90;;;;;;5167702;28;20041;-61
2022/07/01 10:56:04;;;;;;;2.70;2.03;;;33.50;99.90;;;;;;5160182;28;20314;-61
2022/07/01 10:58:37;;;;;;;1.75;1.65;;;32.30;99.90;;;;;;5158331;28;20034;-60
2022/07/01 11:01:08;;;;;;;2.40;2.00;;;32.40;99.90;;;;;;5159665;28;20199;-60
2022/07/01 11:03:44;;;;;;;2.47;1.90;;;32.30;99.90;;;;;;5145397;28;20052;-61
2022/07/01 11:06:17;;;;;;;1.95;1.85;;;32.40;99.90;;;;;;5166535;28;20350;-61
2022/07/01 11:08:49;;;;;;;2.03;1.85;;;32.30;99.90;;;;;;5178695;28;20193;-62
2022/07/01 11:11:23;;;;;;;2.85;1.83;;;31.70;99.90;;;;;;5215713;28;20029;-63
2022/07/01 11:13:56;;;;;;;;;;;32.70;99.90;;;;;;5215045;28;20036;-62
2022/07/01 11:16:29;;;;;;;1.90;1.80;;;33.60;99.90;;;;;;5207489;28;19901;-63
2022/07/01 11:19:03;;;;;;;3.78;2.35;;;33.50;99.90;;;;;;5218030;28;20017;-62
2022/07/01 11:21:47;;;;;;;1.70;1.60;;;33.70;99.90;;;;;;5218573;28;20205;-63
2022/07/01 11:24:19;;;;;;;1.95;1.60;;;32.70;99.90;;;;;;5217247;28;20024;-61
2022/07/01 11:26:58;;;;;;;3.33;1.80;;;32.70;99.90;;;;;;5218519;28;20017;-63
2022/07/01 11:29:32;;;;;;;1.60;1.50;;;32.60;99.90;;;;;;5219179;28;20027;-62
2022/07/01 11:32:04;;;;;;;2.22;1.58;;;32.60;99.90;;;;;;5217013;28;20025;-61
2022/07/01 11:34:41;;;;;;;1.65;1.55;;;32.40;99.90;;;;;;5200247;28;20024;-61
2022/07/01 11:40:14;;;;;;;2.53;1.85;;;33.60;99.90;;;;;;5215407;28;20335;-62
2022/07/01 11:42:50;;;;;;;2.78;1.40;;;32.90;99.90;;;;;;5216700;28;20055;-61
2022/07/01 11:45:24;;;;;;;1.70;1.50;;;33.10;99.90;;;;;;5225070;28;20025;-61
2022/07/01 11:47:55;;;;;;;1.80;1.70;;;32.20;99.90;;;;;;5211433;28;20286;-61
2022/07/01 11:50:28;;;;;;;1.80;1.70;;;32.00;99.90;;;;;;5198328;28;20032;-62
2022/07/01 11:53:00;;;;;;;1.58;1.48;;;32.10;99.90;;;;;;5201653;28;20117;-62
2022/07/01 11:55:33;;;;;;;3.00;1.70;;;32.40;99.90;;;;;;5195814;28;20029;-60
2022/07/01 11:58:09;;;;;;;3.20;1.80;;;32.20;99.90;;;;;;5197836;28;20029;-62
2022/07/01 12:00:40;;;;;;;2.05;1.83;;;32.00;99.90;;;;;;5198417;28;20028;-62
2022/07/01 12:03:11;;;;;;;2.00;1.50;;;32.50;99.90;;;;;;5215564;28;20025;-60
2022/07/01 12:05:51;;;;;;;1.60;1.50;;;32.90;99.90;;;;;;5207296;28;20037;-62
2022/07/01 12:08:33;;;;;;;1.65;1.55;;;32.80;99.90;;;;;;5196449;28;20021;-61
2022/07/01 12:11:05;;;;;;;3.03;1.90;;;33.10;99.90;;;;;;5197670;28;20477;-61
2022/07/01 12:13:36;;;;;;;2.00;1.75;;;33.50;99.90;;;;;;5179412;28;20166;-63
2022/07/01 12:16:08;;;;;;;5.57;1.58;;;34.20;99.90;;;;;;5202304;28;20032;-64
2022/07/01 12:18:57;;;;;;;2.03;1.83;;;34.70;99.90;;;;;;5217098;28;20211;-62
2022/07/01 12:21:33;;;;;;;1.98;1.77;;;34.20;99.90;;;;;;5218567;28;20043;-65
2022/07/01 12:24:09;;;;;;;2.15;1.80;;;33.10;99.90;;;;;;5217157;28;20368;-61
2022/07/01 12:27:06;;;;;;;1.98;1.77;;;32.30;99.90;;;;;;5216408;28;20232;-61
2022/07/01 12:29:47;;;;;;;2.08;1.98;;;31.40;99.90;;;;;;5213201;28;20031;-61
2022/07/01 12:32:23;;;;;;;4.50;2.10;;;31.00;99.90;;;;;;5217115;28;20032;-61
2022/07/01 12:34:58;;;;;;;3.00;1.75;;;30.60;99.90;;;;;;5197313;28;20026;-61
2022/07/01 12:37:32;;;;;;;2.10;1.83;;;30.30;99.90;;;;;;5197283;28;20021;-61
2022/07/01 12:40:25;;;;;;;2.05;1.70;;;30.20;99.90;;;;;;5196971;28;20028;-61
2022/07/01 12:42:59;;;;;;;2.35;1.70;;;29.80;99.90;;;;;;5197186;28;20330;-60
2022/07/01 12:45:41;;;;;;;1.90;1.70;;;29.80;99.90;;;;;;5197676;28;20022;-62
2022/07/01 12:48:15;;;;;;;2.88;2.00;;;30.60;99.90;;;;;;5195988;28;20036;-62
2022/07/01 12:50:47;;;;;;;2.53;2.15;;;31.10;99.90;;;;;;5198310;28;20027;-60
2022/07/01 12:53:23;;;;;;;4.53;1.90;;;30.80;99.90;;;;;;5209364;28;20033;-62
2022/07/01 12:55:57;;;;;;;5.63;2.20;;;30.10;99.90;;;;;;5221197;28;20021;-61
2022/07/01 12:58:31;;;;;;;2.17;1.98;;;29.70;99.90;;;;;;5221269;28;20303;-60
2022/07/01 13:01:05;;;;;;;;;;;29.80;99.90;;;;;;5205226;28;20021;-63
2022/07/01 13:03:36;;;;;;;4.13;2.00;;;30.00;99.90;;;;;;5225835;28;19901;-63
2022/07/01 13:06:10;;;;;;;2.40;2.08;;;29.80;99.90;;;;;;5216013;28;20037;-60
2022/07/01 13:08:41;;;;;;;;;;;29.50;99.90;;;;;;5221619;28;20262;-59
2022/07/01 13:11:12;;;;;;;2.45;2.00;;;29.70;99.90;;;;;;5222462;28;19912;-63
2022/07/01 13:13:51;;;;;;;2.00;1.75;;;29.90;99.90;;;;;;5222817;28;20020;-61
2022/07/01 13:16:24;;;;;;;2.22;1.90;;;30.20;99.90;;;;;;5216088;28;20036;-62
2022/07/01 13:18:55;;;;;;;1.88;1.77;;;31.20;99.90;;;;;;5202398;28;20031;-61
2022/07/01 13:21:32;;;;;;;4.30;2.38;;;32.10;99.90;;;;;;5190694;28;20033;-63
2022/07/01 13:24:06;;;;;;;2.47;1.90;;;32.20;99.90;;;;;;5210607;28;20314;-62
2022/07/01 13:26:40;;;;;;;2.42;1.90;;;31.30;99.90;;;;;;5212261;28;20013;-63
2022/07/01 13:29:11;;;;;;;2.70;1.98;;;30.70;99.90;;;;;;5214193;28;20026;-62
2022/07/01 13:31:45;;;;;;;3.33;2.20;;;30.20;99.90;;;;;;5210743;28;20013;-61
2022/07/01 13:34:16;;;;;;;1.93;1.60;;;29.40;99.90;;;;;;5189906;28;20044;-60
2022/07/01 13:36:49;;;;;;;2.10;1.90;;;29.30;99.90;;;;;;5207129;28;20680;-60
2022/07/01 13:39:23;;;;;;;1.92;1.83;;;29.30;99.90;;;;;;5208306;28;20293;-62
2022/07/01 13:41:56;;;;;;;3.35;1.77;;;29.20;99.90;;;;;;5206093;28;20056;-61
2022/07/01 13:44:30;;;;;;;2.40;2.10;;;29.00;99.90;;;;;;5207670;28;20021;-61
2022/07/01 13:47:05;;;;;;;;;;;28.90;99.90;;;;;;5210980;28;20214;-59